sensor_id;sensor_type;location;lat;lon;timestamp;pressure;altitude;pressure_sealevel;temperature;humidity
60820;BME280;46641;48.904;9.126;2023-04-27T00:02:37;98680.03;;;15.98;46.44
60820;BME280;46641;48.904;9.126;2023-04-27T00:07:27;98676.38;;;15.99;46.54
60820;BME280;46641;48.904;9.126;2023-04-27T00:12:17;98671.28;;;15.97;46.38
60820;BME280;46641;48.904;9.126;2023-04-27T00:17:08;98664.72;;;15.93;46.71
60820;BME280;46641;48.904;9.126;2023-04-27T00:21:58;98667.88;;;15.88;46.47
60820;BME280;46641;48.904;9.126;2023-04-27T00:26:49;98667.25;;;15.86;46.53
60820;BME280;46641;48.904;9.126;2023-04-27T00:31:39;98658.88;;;15.83;46.56
60820;BME280;46641;48.904;9.126;2023-04-27T00:36:32;98658.38;;;15.79;46.59
60820;BME280;46641;48.904;9.126;2023-04-27T00:41:22;98653.09;;;15.79;46.51
60820;BME280;46641;48.904;9.126;2023-04-27T00:46:13;98650.84;;;15.76;46.65
60820;BME280;46641;48.904;9.126;2023-04-27T00:51:04;98647.38;;;15.76;46.63
60820;BME280;46641;48.904;9.126;2023-04-27T00:55:55;98648.56;;;15.73;46.86
60820;BME280;46641;48.904;9.126;2023-04-27T01:00:46;98640.00;;;15.71;46.63
60820;BME280;46641;48.904;9.126;2023-04-27T01:05:37;98649.28;;;15.67;46.85
60820;BME280;46641;48.904;9.126;2023-04-27T01:10:28;98653.03;;;15.64;46.94
60820;BME280;46641;48.904;9.126;2023-04-27T01:15:18;98653.22;;;15.63;46.97
60820;BME280;46641;48.904;9.126;2023-04-27T01:20:09;98654.56;;;15.59;46.99
60820;BME280;46641;48.904;9.126;2023-04-27T01:24:59;98652.94;;;15.58;46.95
60820;BME280;46641;48.904;9.126;2023-04-27T01:29:49;98661.19;;;15.55;46.95
60820;BME280;46641;48.904;9.126;2023-04-27T01:34:40;98658.09;;;15.51;47.21
60820;BME280;46641;48.904;9.126;2023-04-27T01:39:30;98647.06;;;15.48;47.07
60820;BME280;46641;48.904;9.126;2023-04-27T01:44:20;98643.44;;;15.49;46.99
60820;BME280;46641;48.904;9.126;2023-04-27T01:49:13;98648.25;;;15.45;47.11
60820;BME280;46641;48.904;9.126;2023-04-27T01:54:03;98656.31;;;15.43;47.26
60820;BME280;46641;48.904;9.126;2023-04-27T01:58:53;98655.84;;;15.40;47.09
60820;BME280;46641;48.904;9.126;2023-04-27T02:03:43;98668.56;;;15.36;47.41
60820;BME280;46641;48.904;9.126;2023-04-27T02:08:34;98661.81;;;15.34;47.33
60820;BME280;46641;48.904;9.126;2023-04-27T02:13:24;98673.53;;;15.31;47.38
60820;BME280;46641;48.904;9.126;2023-04-27T02:18:15;98662.34;;;15.29;47.38
60820;BME280;46641;48.904;9.126;2023-04-27T02:23:05;98672.22;;;15.27;47.38
60820;BME280;46641;48.904;9.126;2023-04-27T02:27:55;98669.13;;;15.24;47.40
60820;BME280;46641;48.904;9.126;2023-04-27T02:32:46;98677.22;;;15.22;47.60
60820;BME280;46641;48.904;9.126;2023-04-27T02:37:36;98675.94;;;15.18;47.75
60820;BME280;46641;48.904;9.126;2023-04-27T02:42:28;98680.72;;;15.14;47.65
60820;BME280;46641;48.904;9.126;2023-04-27T02:47:18;98678.25;;;15.13;47.60
60820;BME280;46641;48.904;9.126;2023-04-27T02:52:09;98681.41;;;15.08;47.49
60820;BME280;46641;48.904;9.126;2023-04-27T02:56:59;98696.38;;;15.08;47.77
60820;BME280;46641;48.904;9.126;2023-04-27T03:01:50;98688.84;;;15.05;47.95
60820;BME280;46641;48.904;9.126;2023-04-27T03:06:40;98684.72;;;15.02;47.88
60820;BME280;46641;48.904;9.126;2023-04-27T03:11:30;98681.44;;;15.00;47.90
60820;BME280;46641;48.904;9.126;2023-04-27T03:16:21;98683.59;;;14.96;47.81
60820;BME280;46641;48.904;9.126;2023-04-27T03:21:12;98687.22;;;14.95;48.16
60820;BME280;46641;48.904;9.126;2023-04-27T03:26:10;98689.06;;;14.95;48.08
60820;BME280;46641;48.904;9.126;2023-04-27T03:31:07;98685.75;;;14.93;48.05
60820;BME280;46641;48.904;9.126;2023-04-27T03:35:58;98682.47;;;14.91;48.10
60820;BME280;46641;48.904;9.126;2023-04-27T03:40:49;98687.91;;;14.89;48.12
60820;BME280;46641;48.904;9.126;2023-04-27T03:45:39;98684.63;;;14.87;48.17
60820;BME280;46641;48.904;9.126;2023-04-27T03:50:29;98695.34;;;14.86;48.23
60820;BME280;46641;48.904;9.126;2023-04-27T03:55:19;98695.69;;;14.83;48.21
60820;BME280;46641;48.904;9.126;2023-04-27T04:00:10;98689.59;;;14.82;48.29
60820;BME280;46641;48.904;9.126;2023-04-27T04:05:01;98693.19;;;14.81;48.39
60820;BME280;46641;48.904;9.126;2023-04-27T04:09:52;98693.53;;;14.78;48.53
60820;BME280;46641;48.904;9.126;2023-04-27T04:14:42;98694.53;;;14.77;48.39
60820;BME280;46641;48.904;9.126;2023-04-27T04:19:33;98695.53;;;14.76;48.35
60820;BME280;46641;48.904;9.126;2023-04-27T04:24:23;98692.25;;;14.74;48.46
60820;BME280;46641;48.904;9.126;2023-04-27T04:29:13;98694.22;;;14.72;48.53
60820;BME280;46641;48.904;9.126;2023-04-27T04:34:04;98698.84;;;14.70;48.36
60820;BME280;46641;48.904;9.126;2023-04-27T04:38:54;98697.22;;;14.69;48.39
60820;BME280;46641;48.904;9.126;2023-04-27T04:43:46;98703.44;;;14.68;48.72
60820;BME280;46641;48.904;9.126;2023-04-27T04:48:38;98705.13;;;14.69;48.62
60820;BME280;46641;48.904;9.126;2023-04-27T04:53:28;98694.91;;;14.66;48.62
60820;BME280;46641;48.904;9.126;2023-04-27T04:58:19;98710.72;;;14.66;48.67
60820;BME280;46641;48.904;9.126;2023-04-27T05:03:09;98707.41;;;14.64;48.81
60820;BME280;46641;48.904;9.126;2023-04-27T05:07:59;98711.06;;;14.63;48.68
60820;BME280;46641;48.904;9.126;2023-04-27T05:12:50;98712.03;;;14.62;48.83
60820;BME280;46641;48.904;9.126;2023-04-27T05:17:40;98701.19;;;14.57;48.75
60820;BME280;46641;48.904;9.126;2023-04-27T05:22:30;98702.81;;;14.41;48.74
60820;BME280;46641;48.904;9.126;2023-04-27T05:27:20;98717.00;;;14.24;49.24
60820;BME280;46641;48.904;9.126;2023-04-27T05:32:11;98717.63;;;14.26;49.12
60820;BME280;46641;48.904;9.126;2023-04-27T05:37:01;98715.66;;;14.36;49.02
60820;BME280;46641;48.904;9.126;2023-04-27T05:41:52;98721.25;;;14.41;48.83
60820;BME280;46641;48.904;9.126;2023-04-27T05:46:43;98729.63;;;14.45;48.60
60820;BME280;46641;48.904;9.126;2023-04-27T05:51:33;98728.19;;;14.51;48.41
60820;BME280;46641;48.904;9.126;2023-04-27T05:56:23;98729.16;;;14.49;48.52
60820;BME280;46641;48.904;9.126;2023-04-27T06:01:14;98744.63;;;13.95;50.00
60820;BME280;46641;48.904;9.126;2023-04-27T06:06:04;98743.63;;;14.29;49.14
60820;BME280;46641;48.904;9.126;2023-04-27T06:10:55;98750.22;;;14.41;48.84
60820;BME280;46641;48.904;9.126;2023-04-27T06:15:45;98739.53;;;14.51;48.70
60820;BME280;46641;48.904;9.126;2023-04-27T06:20:36;98744.97;;;14.58;48.56
60820;BME280;46641;48.904;9.126;2023-04-27T06:25:27;98748.25;;;14.60;48.49
60820;BME280;46641;48.904;9.126;2023-04-27T06:30:17;98748.91;;;14.62;48.40
60820;BME280;46641;48.904;9.126;2023-04-27T06:35:09;98752.03;;;14.65;48.51
60820;BME280;46641;48.904;9.126;2023-04-27T06:39:59;98746.94;;;14.64;48.51
60820;BME280;46641;48.904;9.126;2023-04-27T06:44:52;98747.25;;;14.69;48.40
60820;BME280;46641;48.904;9.126;2023-04-27T06:49:43;98760.75;;;14.74;48.35
60820;BME280;46641;48.904;9.126;2023-04-27T06:54:34;98762.56;;;14.73;48.32
60820;BME280;46641;48.904;9.126;2023-04-27T06:59:24;98763.03;;;14.77;48.60
60820;BME280;46641;48.904;9.126;2023-04-27T07:04:14;98768.47;;;14.84;48.46
60820;BME280;46641;48.904;9.126;2023-04-27T07:09:05;98779.66;;;14.86;48.36
60820;BME280;46641;48.904;9.126;2023-04-27T07:13:55;98771.44;;;14.89;48.41
60820;BME280;46641;48.904;9.126;2023-04-27T07:18:45;98769.56;;;14.98;48.21
60820;BME280;46641;48.904;9.126;2023-04-27T07:23:36;98761.47;;;15.07;48.23
60820;BME280;46641;48.904;9.126;2023-04-27T07:28:27;98761.47;;;15.07;48.04
60820;BME280;46641;48.904;9.126;2023-04-27T07:33:18;98762.94;;;15.10;48.03
60820;BME280;46641;48.904;9.126;2023-04-27T07:38:08;98761.59;;;15.14;48.02
60820;BME280;46641;48.904;9.126;2023-04-27T07:42:59;98764.09;;;15.15;48.08
60820;BME280;46641;48.904;9.126;2023-04-27T07:47:49;98760.59;;;15.23;47.99
60820;BME280;46641;48.904;9.126;2023-04-27T07:52:39;98766.81;;;15.30;47.96
60820;BME280;46641;48.904;9.126;2023-04-27T07:57:30;98759.22;;;15.35;47.50
60820;BME280;46641;48.904;9.126;2023-04-27T08:02:20;98763.22;;;15.31;48.09
60820;BME280;46641;48.904;9.126;2023-04-27T08:07:11;98755.09;;;15.33;48.04
60820;BME280;46641;48.904;9.126;2023-04-27T08:12:01;98756.06;;;15.40;48.05
60820;BME280;46641;48.904;9.126;2023-04-27T08:16:52;98752.59;;;15.48;48.02
60820;BME280;46641;48.904;9.126;2023-04-27T08:21:42;98744.94;;;15.53;47.73
60820;BME280;46641;48.904;9.126;2023-04-27T08:26:32;98742.28;;;15.61;47.96
60820;BME280;46641;48.904;9.126;2023-04-27T08:31:24;98742.91;;;15.71;47.57
60820;BME280;46641;48.904;9.126;2023-04-27T08:36:15;98740.19;;;15.79;47.45
60820;BME280;46641;48.904;9.126;2023-04-27T08:41:05;98736.06;;;15.85;47.06
60820;BME280;46641;48.904;9.126;2023-04-27T08:45:56;98731.06;;;15.90;47.42
60820;BME280;46641;48.904;9.126;2023-04-27T08:50:48;98725.44;;;15.93;47.57
60820;BME280;46641;48.904;9.126;2023-04-27T08:55:39;98714.00;;;16.01;46.99
60820;BME280;46641;48.904;9.126;2023-04-27T09:00:40;98726.84;;;16.04;47.37
60820;BME280;46641;48.904;9.126;2023-04-27T09:05:31;98726.50;;;16.07;48.23
60820;BME280;46641;48.904;9.126;2023-04-27T09:10:21;98734.97;;;16.17;48.01
60820;BME280;46641;48.904;9.126;2023-04-27T09:15:12;98725.53;;;16.23;48.21
60820;BME280;46641;48.904;9.126;2023-04-27T09:20:04;98740.47;;;16.30;48.70
60820;BME280;46641;48.904;9.126;2023-04-27T09:25:04;98735.75;;;16.41;48.58
60820;BME280;46641;48.904;9.126;2023-04-27T09:29:54;98739.63;;;16.53;44.99
60820;BME280;46641;48.904;9.126;2023-04-27T09:34:45;98736.88;;;15.85;42.61
60820;BME280;46641;48.904;9.126;2023-04-27T09:39:37;98733.94;;;16.03;42.90
60820;BME280;46641;48.904;9.126;2023-04-27T09:44:27;98745.03;;;16.22;43.04
60820;BME280;46641;48.904;9.126;2023-04-27T09:49:19;98739.25;;;16.56;42.29
60820;BME280;46641;48.904;9.126;2023-04-27T09:54:11;98727.75;;;16.87;42.56
60820;BME280;46641;48.904;9.126;2023-04-27T10:09:34;98727.84;;;17.44;40.45
60820;BME280;46641;48.904;9.126;2023-04-27T10:14:27;98726.31;;;17.50;39.66
60820;BME280;46641;48.904;9.126;2023-04-27T10:19:17;98719.75;;;17.82;43.17
60820;BME280;46641;48.904;9.126;2023-04-27T10:24:08;98720.44;;;18.12;43.03
60820;BME280;46641;48.904;9.126;2023-04-27T10:29:06;98714.72;;;18.37;43.88
60820;BME280;46641;48.904;9.126;2023-04-27T10:34:10;98722.06;;;18.63;44.26
60820;BME280;46641;48.904;9.126;2023-04-27T10:39:00;98704.13;;;18.72;44.68
60820;BME280;46641;48.904;9.126;2023-04-27T10:43:51;98711.28;;;18.99;45.55
60820;BME280;46641;48.904;9.126;2023-04-27T10:48:42;98701.16;;;19.23;46.14
60820;BME280;46641;48.904;9.126;2023-04-27T10:53:36;98697.75;;;19.42;46.18
60820;BME280;46641;48.904;9.126;2023-04-27T10:58:26;98696.56;;;19.58;46.32
60820;BME280;46641;48.904;9.126;2023-04-27T11:03:23;98703.56;;;19.72;46.26
60820;BME280;46641;48.904;9.126;2023-04-27T11:08:16;98700.03;;;19.52;42.92
60820;BME280;46641;48.904;9.126;2023-04-27T11:13:12;98693.16;;;19.71;41.34
60820;BME280;46641;48.904;9.126;2023-04-27T11:18:04;98681.97;;;20.02;42.10
60820;BME280;46641;48.904;9.126;2023-04-27T11:22:54;98682.56;;;20.11;40.54
60820;BME280;46641;48.904;9.126;2023-04-27T11:27:46;98684.41;;;20.17;39.72
60820;BME280;46641;48.904;9.126;2023-04-27T11:32:36;98676.81;;;20.34;43.82
60820;BME280;46641;48.904;9.126;2023-04-27T11:37:27;98682.53;;;20.57;43.84
60820;BME280;46641;48.904;9.126;2023-04-27T11:42:24;98681.28;;;20.80;43.58
60820;BME280;46641;48.904;9.126;2023-04-27T11:47:16;98689.44;;;20.91;44.19
60820;BME280;46641;48.904;9.126;2023-04-27T11:52:08;98678.97;;;21.03;44.42
60820;BME280;46641;48.904;9.126;2023-04-27T11:57:06;98677.88;;;21.17;43.68
60820;BME280;46641;48.904;9.126;2023-04-27T12:01:57;98666.38;;;21.23;44.57
60820;BME280;46641;48.904;9.126;2023-04-27T12:06:47;98663.44;;;21.32;44.70
60820;BME280;46641;48.904;9.126;2023-04-27T12:11:37;98662.44;;;21.39;44.90
60820;BME280;46641;48.904;9.126;2023-04-27T12:16:28;98665.25;;;21.44;44.84
60820;BME280;46641;48.904;9.126;2023-04-27T12:21:18;98658.94;;;21.45;45.25
60820;BME280;46641;48.904;9.126;2023-04-27T12:26:10;98652.13;;;21.50;45.56
60820;BME280;46641;48.904;9.126;2023-04-27T12:31:02;98644.75;;;21.52;45.50
60820;BME280;46641;48.904;9.126;2023-04-27T12:35:53;98647.41;;;21.52;45.85
60820;BME280;46641;48.904;9.126;2023-04-27T12:40:43;98642.53;;;21.49;46.26
60820;BME280;46641;48.904;9.126;2023-04-27T12:45:34;98641.09;;;21.46;46.05
60820;BME280;46641;48.904;9.126;2023-04-27T12:50:24;98628.72;;;21.58;45.75
60820;BME280;46641;48.904;9.126;2023-04-27T12:55:14;98639.50;;;21.70;45.84
60820;BME280;46641;48.904;9.126;2023-04-27T13:00:05;98627.16;;;21.76;45.92
60820;BME280;46641;48.904;9.126;2023-04-27T13:04:59;98623.25;;;21.78;46.02
60820;BME280;46641;48.904;9.126;2023-04-27T13:09:49;98630.59;;;21.83;45.58
60820;BME280;46641;48.904;9.126;2023-04-27T13:14:40;98624.44;;;21.82;45.62
60820;BME280;46641;48.904;9.126;2023-04-27T13:19:31;98625.50;;;21.81;45.72
60820;BME280;46641;48.904;9.126;2023-04-27T13:24:21;98621.78;;;21.82;45.85
60820;BME280;46641;48.904;9.126;2023-04-27T13:29:13;98611.72;;;21.84;45.30
60820;BME280;46641;48.904;9.126;2023-04-27T13:34:03;98612.91;;;21.88;44.96
60820;BME280;46641;48.904;9.126;2023-04-27T13:38:54;98608.41;;;21.89;45.61
60820;BME280;46641;48.904;9.126;2023-04-27T13:43:44;98601.81;;;21.91;45.67
60820;BME280;46641;48.904;9.126;2023-04-27T13:48:35;98594.25;;;21.88;45.90
60820;BME280;46641;48.904;9.126;2023-04-27T13:53:26;98597.53;;;21.90;45.63
60820;BME280;46641;48.904;9.126;2023-04-27T13:58:16;98602.88;;;21.90;45.70
60820;BME280;46641;48.904;9.126;2023-04-27T14:03:07;98600.78;;;21.92;45.60
60820;BME280;46641;48.904;9.126;2023-04-27T14:07:57;98590.13;;;21.92;45.49
60820;BME280;46641;48.904;9.126;2023-04-27T14:12:48;98600.16;;;21.97;45.22
60820;BME280;46641;48.904;9.126;2023-04-27T14:17:38;98590.88;;;22.00;45.07
60820;BME280;46641;48.904;9.126;2023-04-27T14:22:29;98587.34;;;22.06;43.43
60820;BME280;46641;48.904;9.126;2023-04-27T14:27:19;98589.56;;;22.09;43.23
60820;BME280;46641;48.904;9.126;2023-04-27T14:32:09;98589.53;;;22.15;42.04
60820;BME280;46641;48.904;9.126;2023-04-27T14:37:00;98591.34;;;22.15;42.74
60820;BME280;46641;48.904;9.126;2023-04-27T14:41:50;98587.25;;;22.12;42.61
60820;BME280;46641;48.904;9.126;2023-04-27T14:46:40;98591.78;;;22.12;42.25
60820;BME280;46641;48.904;9.126;2023-04-27T14:51:31;98596.31;;;22.11;42.53
60820;BME280;46641;48.904;9.126;2023-04-27T14:56:22;98591.34;;;22.15;41.67
60820;BME280;46641;48.904;9.126;2023-04-27T15:01:13;98596.75;;;22.08;42.29
60820;BME280;46641;48.904;9.126;2023-04-27T15:06:03;98605.78;;;22.07;41.43
60820;BME280;46641;48.904;9.126;2023-04-27T15:10:54;98604.13;;;22.06;41.83
60820;BME280;46641;48.904;9.126;2023-04-27T15:15:52;98598.00;;;22.06;41.57
60820;BME280;46641;48.904;9.126;2023-04-27T15:20:42;98593.28;;;22.08;41.67
60820;BME280;46641;48.904;9.126;2023-04-27T15:25:33;98591.22;;;22.10;41.71
60820;BME280;46641;48.904;9.126;2023-04-27T15:30:23;98583.78;;;22.12;41.98
60820;BME280;46641;48.904;9.126;2023-04-27T15:35:13;98583.59;;;22.13;41.82
60820;BME280;46641;48.904;9.126;2023-04-27T15:40:05;98581.72;;;22.14;41.83
60820;BME280;46641;48.904;9.126;2023-04-27T15:44:58;98577.41;;;22.13;42.07
60820;BME280;46641;48.904;9.126;2023-04-27T15:49:49;98579.06;;;22.14;41.87
60820;BME280;46641;48.904;9.126;2023-04-27T15:54:40;98568.41;;;22.14;42.05
60820;BME280;46641;48.904;9.126;2023-04-27T15:59:31;98555.69;;;22.16;41.79
60820;BME280;46641;48.904;9.126;2023-04-27T16:04:21;98557.31;;;22.17;42.07
60820;BME280;46641;48.904;9.126;2023-04-27T16:09:12;98550.94;;;22.18;41.98
60820;BME280;46641;48.904;9.126;2023-04-27T16:14:02;98542.13;;;22.17;42.09
60820;BME280;46641;48.904;9.126;2023-04-27T16:18:53;98541.53;;;22.15;42.10
60820;BME280;46641;48.904;9.126;2023-04-27T16:23:43;98533.53;;;22.15;42.45
60820;BME280;46641;48.904;9.126;2023-04-27T16:28:34;98532.94;;;22.13;42.11
60820;BME280;46641;48.904;9.126;2023-04-27T16:33:25;98529.22;;;22.14;41.85
60820;BME280;46641;48.904;9.126;2023-04-27T16:38:15;98529.44;;;22.13;42.19
60820;BME280;46641;48.904;9.126;2023-04-27T16:43:06;98527.22;;;22.10;42.39
60820;BME280;46641;48.904;9.126;2023-04-27T16:47:56;98530.09;;;22.08;42.54
60820;BME280;46641;48.904;9.126;2023-04-27T16:52:48;98527.44;;;22.08;42.29
60820;BME280;46641;48.904;9.126;2023-04-27T16:57:38;98524.16;;;22.06;42.44
60820;BME280;46641;48.904;9.126;2023-04-27T17:02:29;98521.75;;;22.05;42.33
60820;BME280;46641;48.904;9.126;2023-04-27T17:07:19;98531.88;;;21.96;40.75
60820;BME280;46641;48.904;9.126;2023-04-27T17:12:10;98526.31;;;21.98;40.95
60820;BME280;46641;48.904;9.126;2023-04-27T17:17:02;98521.63;;;21.93;40.75
60820;BME280;46641;48.904;9.126;2023-04-27T17:21:53;98520.25;;;21.90;41.09
60820;BME280;46641;48.904;9.126;2023-04-27T17:26:43;98530.31;;;21.88;40.81
60820;BME280;46641;48.904;9.126;2023-04-27T17:31:34;98534.47;;;21.84;41.03
60820;BME280;46641;48.904;9.126;2023-04-27T17:36:25;98532.59;;;21.85;41.17
60820;BME280;46641;48.904;9.126;2023-04-27T17:41:15;98525.25;;;21.80;40.61
60820;BME280;46641;48.904;9.126;2023-04-27T17:46:08;98520.34;;;21.77;40.49
60820;BME280;46641;48.904;9.126;2023-04-27T17:50:58;98527.53;;;21.77;40.87
60820;BME280;46641;48.904;9.126;2023-04-27T17:55:49;98519.41;;;21.72;40.55
60820;BME280;46641;48.904;9.126;2023-04-27T18:00:42;98523.38;;;21.62;40.09
60820;BME280;46641;48.904;9.126;2023-04-27T18:05:32;98520.91;;;21.61;41.02
60820;BME280;46641;48.904;9.126;2023-04-27T18:10:23;98524.84;;;21.58;40.59
60820;BME280;46641;48.904;9.126;2023-04-27T18:15:13;98528.75;;;21.56;41.00
60820;BME280;46641;48.904;9.126;2023-04-27T18:20:04;98535.34;;;21.53;40.99
60820;BME280;46641;48.904;9.126;2023-04-27T18:24:56;98536.00;;;21.49;40.96
60820;BME280;46641;48.904;9.126;2023-04-27T18:29:47;98551.78;;;21.43;41.27
60820;BME280;46641;48.904;9.126;2023-04-27T18:34:37;98543.06;;;21.30;41.33
60820;BME280;46641;48.904;9.126;2023-04-27T18:39:28;98546.81;;;20.84;40.71
60820;BME280;46641;48.904;9.126;2023-04-27T18:44:19;98529.50;;;21.06;40.56
60820;BME280;46641;48.904;9.126;2023-04-27T18:49:10;98530.28;;;21.13;41.02
60820;BME280;46641;48.904;9.126;2023-04-27T18:54:01;98526.56;;;21.14;40.45
60820;BME280;46641;48.904;9.126;2023-04-27T18:58:51;98542.53;;;21.14;40.44
60820;BME280;46641;48.904;9.126;2023-04-27T19:03:42;98539.50;;;21.11;40.38
60820;BME280;46641;48.904;9.126;2023-04-27T19:08:33;98531.94;;;21.08;40.18
60820;BME280;46641;48.904;9.126;2023-04-27T19:13:24;98540.34;;;21.05;40.44
60820;BME280;46641;48.904;9.126;2023-04-27T19:18:14;98549.81;;;21.00;40.54
60820;BME280;46641;48.904;9.126;2023-04-27T19:23:04;98547.56;;;20.97;40.71
60820;BME280;46641;48.904;9.126;2023-04-27T19:27:56;98553.31;;;20.94;40.94
60820;BME280;46641;48.904;9.126;2023-04-27T19:32:47;98551.06;;;20.91;40.90
60820;BME280;46641;48.904;9.126;2023-04-27T19:37:38;98551.72;;;20.87;40.90
60820;BME280;46641;48.904;9.126;2023-04-27T19:42:28;98530.25;;;20.82;41.06
60820;BME280;46641;48.904;9.126;2023-04-27T19:47:19;98516.56;;;20.78;41.03
60820;BME280;46641;48.904;9.126;2023-04-27T19:52:10;98531.31;;;20.74;41.03
60820;BME280;46641;48.904;9.126;2023-04-27T19:57:00;98531.94;;;20.69;41.18
60820;BME280;46641;48.904;9.126;2023-04-27T20:01:50;98521.34;;;20.63;41.29
60820;BME280;46641;48.904;9.126;2023-04-27T20:06:41;98529.72;;;20.60;41.60
60820;BME280;46641;48.904;9.126;2023-04-27T20:11:32;98537.56;;;20.54;41.54
60820;BME280;46641;48.904;9.126;2023-04-27T20:16:22;98533.03;;;20.48;41.59
60820;BME280;46641;48.904;9.126;2023-04-27T20:21:14;98531.22;;;20.42;41.63
60820;BME280;46641;48.904;9.126;2023-04-27T20:26:04;98532.66;;;20.38;41.33
60820;BME280;46641;48.904;9.126;2023-04-27T20:30:55;98521.03;;;20.33;41.58
60820;BME280;46641;48.904;9.126;2023-04-27T20:35:45;98519.22;;;20.26;41.84
60820;BME280;46641;48.904;9.126;2023-04-27T20:40:36;98507.38;;;20.22;41.90
60820;BME280;46641;48.904;9.126;2023-04-27T20:45:26;98516.78;;;20.18;41.89
60820;BME280;46641;48.904;9.126;2023-04-27T20:50:17;98514.75;;;20.14;42.04
60820;BME280;46641;48.904;9.126;2023-04-27T20:55:07;98525.19;;;20.08;41.78
60820;BME280;46641;48.904;9.126;2023-04-27T20:59:58;98506.63;;;20.02;41.97
60820;BME280;46641;48.904;9.126;2023-04-27T21:04:48;98498.44;;;19.97;42.16
60820;BME280;46641;48.904;9.126;2023-04-27T21:09:39;98499.06;;;19.92;42.21
60820;BME280;46641;48.904;9.126;2023-04-27T21:14:29;98492.75;;;19.87;42.34
60820;BME280;46641;48.904;9.126;2023-04-27T21:19:19;98488.03;;;19.82;42.31
60820;BME280;46641;48.904;9.126;2023-04-27T21:24:10;98486.22;;;19.76;42.34
60820;BME280;46641;48.904;9.126;2023-04-27T21:29:00;98481.75;;;19.70;42.38
60820;BME280;46641;48.904;9.126;2023-04-27T21:33:51;98476.84;;;19.67;42.60
60820;BME280;46641;48.904;9.126;2023-04-27T21:38:42;98473.16;;;19.61;42.72
60820;BME280;46641;48.904;9.126;2023-04-27T21:43:32;98465.81;;;19.56;42.52
60820;BME280;46641;48.904;9.126;2023-04-27T21:48:22;98457.41;;;19.53;42.96
60820;BME280;46641;48.904;9.126;2023-04-27T21:53:13;98459.88;;;19.48;42.84
60820;BME280;46641;48.904;9.126;2023-04-27T21:58:04;98452.75;;;19.42;42.75
60820;BME280;46641;48.904;9.126;2023-04-27T22:02:55;98452.34;;;19.38;42.87
60820;BME280;46641;48.904;9.126;2023-04-27T22:07:45;98442.31;;;19.33;42.94
60820;BME280;46641;48.904;9.126;2023-04-27T22:12:36;98449.88;;;19.30;43.14
60820;BME280;46641;48.904;9.126;2023-04-27T22:17:27;98446.00;;;19.26;43.23
60820;BME280;46641;48.904;9.126;2023-04-27T22:22:17;98449.06;;;19.23;42.96
60820;BME280;46641;48.904;9.126;2023-04-27T22:27:07;98450.69;;;19.17;43.21
60820;BME280;46641;48.904;9.126;2023-04-27T22:31:57;98450.28;;;19.13;43.12
60820;BME280;46641;48.904;9.126;2023-04-27T22:36:48;98448.25;;;19.09;43.20
60820;BME280;46641;48.904;9.126;2023-04-27T22:41:38;98448.84;;;19.04;43.47
60820;BME280;46641;48.904;9.126;2023-04-27T22:46:29;98444.16;;;19.00;43.20
60820;BME280;46641;48.904;9.126;2023-04-27T22:51:19;98441.28;;;18.95;43.41
60820;BME280;46641;48.904;9.126;2023-04-27T22:56:10;98442.53;;;18.92;43.57
60820;BME280;46641;48.904;9.126;2023-04-27T23:01:01;98435.41;;;18.86;43.56
60820;BME280;46641;48.904;9.126;2023-04-27T23:05:52;98443.75;;;18.83;43.46
60820;BME280;46641;48.904;9.126;2023-04-27T23:10:42;98445.78;;;18.81;43.50
60820;BME280;46641;48.904;9.126;2023-04-27T23:15:33;98450.88;;;18.76;43.68
60820;BME280;46641;48.904;9.126;2023-04-27T23:20:23;98443.34;;;18.73;43.77
60820;BME280;46641;48.904;9.126;2023-04-27T23:25:13;98431.44;;;18.68;43.68
60820;BME280;46641;48.904;9.126;2023-04-27T23:30:04;98423.91;;;18.65;43.90
60820;BME280;46641;48.904;9.126;2023-04-27T23:34:54;98428.78;;;18.62;43.70
60820;BME280;46641;48.904;9.126;2023-04-27T23:39:45;98424.09;;;18.57;44.08
60820;BME280;46641;48.904;9.126;2023-04-27T23:44:35;98404.09;;;18.55;43.73
60820;BME280;46641;48.904;9.126;2023-04-27T23:49:25;98402.06;;;18.50;44.29
60820;BME280;46641;48.904;9.126;2023-04-27T23:54:16;98384.72;;;18.48;43.78
60820;BME280;46641;48.904;9.126;2023-04-27T23:59:06;98383.69;;;18.42;43.92
